sensor_id;sensor_type;location;lat;lon;timestamp;P1;durP1;ratioP1;P2;durP2;ratioP2
21890;SDS011;11110;52.386;16.940;2022-12-10T00:01:47;69.67;;;26.60;;
21890;SDS011;11110;52.386;16.940;2022-12-10T00:04:16;62.90;;;22.80;;
21890;SDS011;11110;52.386;16.940;2022-12-10T00:06:46;66.60;;;24.60;;
21890;SDS011;11110;52.386;16.940;2022-12-10T00:09:18;68.60;;;25.53;;
21890;SDS011;11110;52.386;16.940;2022-12-10T00:11:47;67.27;;;25.13;;
21890;SDS011;11110;52.386;16.940;2022-12-10T00:14:16;69.17;;;24.67;;
21890;SDS011;11110;52.386;16.940;2022-12-10T00:16:45;69.33;;;25.23;;
21890;SDS011;11110;52.386;16.940;2022-12-10T00:19:13;67.90;;;23.17;;
21890;SDS011;11110;52.386;16.940;2022-12-10T00:21:42;76.47;;;24.97;;
21890;SDS011;11110;52.386;16.940;2022-12-10T00:24:14;64.50;;;22.47;;
21890;SDS011;11110;52.386;16.940;2022-12-10T00:26:42;70.60;;;25.73;;
21890;SDS011;11110;52.386;16.940;2022-12-10T00:29:12;68.30;;;24.60;;
21890;SDS011;11110;52.386;16.940;2022-12-10T00:31:41;67.17;;;24.00;;
21890;SDS011;11110;52.386;16.940;2022-12-10T00:34:10;60.03;;;22.67;;
21890;SDS011;11110;52.386;16.940;2022-12-10T00:36:41;70.27;;;23.53;;
21890;SDS011;11110;52.386;16.940;2022-12-10T00:39:14;68.13;;;25.57;;
21890;SDS011;11110;52.386;16.940;2022-12-10T00:41:44;68.00;;;23.40;;
21890;SDS011;11110;52.386;16.940;2022-12-10T00:44:13;55.67;;;20.83;;
21890;SDS011;11110;52.386;16.940;2022-12-10T00:46:42;69.63;;;24.10;;
21890;SDS011;11110;52.386;16.940;2022-12-10T00:49:11;56.07;;;21.23;;
21890;SDS011;11110;52.386;16.940;2022-12-10T00:51:40;64.23;;;23.53;;
21890;SDS011;11110;52.386;16.940;2022-12-10T00:54:12;65.73;;;24.03;;
21890;SDS011;11110;52.386;16.940;2022-12-10T00:56:42;70.00;;;24.23;;
21890;SDS011;11110;52.386;16.940;2022-12-10T00:59:11;66.07;;;22.13;;
21890;SDS011;11110;52.386;16.940;2022-12-10T01:01:40;76.67;;;23.20;;
21890;SDS011;11110;52.386;16.940;2022-12-10T01:04:11;60.50;;;21.47;;
21890;SDS011;11110;52.386;16.940;2022-12-10T01:06:43;61.27;;;20.73;;
21890;SDS011;11110;52.386;16.940;2022-12-10T01:09:16;63.90;;;23.67;;
21890;SDS011;11110;52.386;16.940;2022-12-10T01:11:47;61.70;;;23.37;;
21890;SDS011;11110;52.386;16.940;2022-12-10T01:14:18;65.17;;;25.07;;
21890;SDS011;11110;52.386;16.940;2022-12-10T01:16:49;68.30;;;22.80;;
21890;SDS011;11110;52.386;16.940;2022-12-10T01:19:20;66.00;;;24.77;;
21890;SDS011;11110;52.386;16.940;2022-12-10T01:21:49;59.13;;;23.70;;
21890;SDS011;11110;52.386;16.940;2022-12-10T01:24:19;73.10;;;23.97;;
21890;SDS011;11110;52.386;16.940;2022-12-10T01:26:49;57.17;;;21.73;;
21890;SDS011;11110;52.386;16.940;2022-12-10T01:29:17;65.87;;;23.20;;
21890;SDS011;11110;52.386;16.940;2022-12-10T01:31:46;67.83;;;24.10;;
21890;SDS011;11110;52.386;16.940;2022-12-10T01:34:18;59.20;;;22.13;;
21890;SDS011;11110;52.386;16.940;2022-12-10T01:36:48;52.03;;;18.93;;
21890;SDS011;11110;52.386;16.940;2022-12-10T01:39:21;68.47;;;24.17;;
21890;SDS011;11110;52.386;16.940;2022-12-10T01:41:51;60.53;;;21.83;;
21890;SDS011;11110;52.386;16.940;2022-12-10T01:47:29;59.37;;;22.83;;
21890;SDS011;11110;52.386;16.940;2022-12-10T01:49:58;61.17;;;22.77;;
21890;SDS011;11110;52.386;16.940;2022-12-10T01:52:28;58.07;;;21.67;;
21890;SDS011;11110;52.386;16.940;2022-12-10T01:54:58;58.83;;;21.97;;
21890;SDS011;11110;52.386;16.940;2022-12-10T01:57:27;62.10;;;22.37;;
21890;SDS011;11110;52.386;16.940;2022-12-10T01:59:57;55.87;;;22.23;;
21890;SDS011;11110;52.386;16.940;2022-12-10T02:02:33;63.73;;;22.93;;
21890;SDS011;11110;52.386;16.940;2022-12-10T02:05:11;64.13;;;22.73;;
21890;SDS011;11110;52.386;16.940;2022-12-10T02:07:52;59.03;;;22.30;;
21890;SDS011;11110;52.386;16.940;2022-12-10T02:10:35;54.37;;;22.63;;
21890;SDS011;11110;52.386;16.940;2022-12-10T02:13:15;55.23;;;21.20;;
21890;SDS011;11110;52.386;16.940;2022-12-10T02:15:50;66.03;;;23.20;;
21890;SDS011;11110;52.386;16.940;2022-12-10T02:18:24;59.97;;;22.87;;
21890;SDS011;11110;52.386;16.940;2022-12-10T02:20:56;53.57;;;21.33;;
21890;SDS011;11110;52.386;16.940;2022-12-10T02:23:30;55.67;;;21.50;;
21890;SDS011;11110;52.386;16.940;2022-12-10T02:26:06;44.03;;;18.80;;
21890;SDS011;11110;52.386;16.940;2022-12-10T02:28:43;46.50;;;18.23;;
21890;SDS011;11110;52.386;16.940;2022-12-10T02:31:18;56.93;;;19.57;;
21890;SDS011;11110;52.386;16.940;2022-12-10T02:33:51;50.40;;;18.37;;
21890;SDS011;11110;52.386;16.940;2022-12-10T02:36:23;45.03;;;18.40;;
21890;SDS011;11110;52.386;16.940;2022-12-10T02:38:54;47.57;;;16.43;;
21890;SDS011;11110;52.386;16.940;2022-12-10T02:41:25;40.93;;;16.07;;
21890;SDS011;11110;52.386;16.940;2022-12-10T02:43:58;50.73;;;17.20;;
21890;SDS011;11110;52.386;16.940;2022-12-10T02:46:31;43.13;;;18.20;;
21890;SDS011;11110;52.386;16.940;2022-12-10T02:49:04;49.60;;;18.40;;
21890;SDS011;11110;52.386;16.940;2022-12-10T02:51:35;47.33;;;17.20;;
21890;SDS011;11110;52.386;16.940;2022-12-10T02:54:05;50.50;;;18.07;;
21890;SDS011;11110;52.386;16.940;2022-12-10T02:56:54;44.57;;;17.67;;
21890;SDS011;11110;52.386;16.940;2022-12-10T02:59:29;44.17;;;17.87;;
21890;SDS011;11110;52.386;16.940;2022-12-10T03:02:06;48.50;;;17.17;;
21890;SDS011;11110;52.386;16.940;2022-12-10T03:04:43;45.40;;;18.17;;
21890;SDS011;11110;52.386;16.940;2022-12-10T03:07:21;45.73;;;17.37;;
21890;SDS011;11110;52.386;16.940;2022-12-10T03:09:56;43.60;;;18.00;;
21890;SDS011;11110;52.386;16.940;2022-12-10T03:12:29;42.57;;;17.17;;
21890;SDS011;11110;52.386;16.940;2022-12-10T03:15:03;47.43;;;18.37;;
21890;SDS011;11110;52.386;16.940;2022-12-10T03:17:36;47.27;;;17.90;;
21890;SDS011;11110;52.386;16.940;2022-12-10T03:20:08;48.17;;;16.77;;
21890;SDS011;11110;52.386;16.940;2022-12-10T03:22:37;38.43;;;17.10;;
21890;SDS011;11110;52.386;16.940;2022-12-10T03:25:08;44.17;;;17.63;;
21890;SDS011;11110;52.386;16.940;2022-12-10T03:27:40;43.13;;;16.77;;
21890;SDS011;11110;52.386;16.940;2022-12-10T03:30:11;43.30;;;16.23;;
21890;SDS011;11110;52.386;16.940;2022-12-10T03:32:41;45.37;;;16.87;;
21890;SDS011;11110;52.386;16.940;2022-12-10T03:35:11;42.83;;;16.60;;
21890;SDS011;11110;52.386;16.940;2022-12-10T03:37:42;38.90;;;15.47;;
21890;SDS011;11110;52.386;16.940;2022-12-10T03:40:11;41.33;;;16.07;;
21890;SDS011;11110;52.386;16.940;2022-12-10T03:42:40;41.90;;;15.80;;
21890;SDS011;11110;52.386;16.940;2022-12-10T03:45:10;40.63;;;14.80;;
21890;SDS011;11110;52.386;16.940;2022-12-10T03:47:38;46.53;;;16.37;;
21890;SDS011;11110;52.386;16.940;2022-12-10T03:50:09;42.07;;;15.83;;
21890;SDS011;11110;52.386;16.940;2022-12-10T03:52:39;42.77;;;15.70;;
21890;SDS011;11110;52.386;16.940;2022-12-10T03:55:08;44.13;;;16.47;;
21890;SDS011;11110;52.386;16.940;2022-12-10T03:57:37;41.77;;;16.57;;
21890;SDS011;11110;52.386;16.940;2022-12-10T04:00:07;41.87;;;15.70;;
21890;SDS011;11110;52.386;16.940;2022-12-10T04:02:41;41.60;;;15.03;;
21890;SDS011;11110;52.386;16.940;2022-12-10T04:05:10;38.07;;;14.77;;
21890;SDS011;11110;52.386;16.940;2022-12-10T04:07:39;36.93;;;14.43;;
21890;SDS011;11110;52.386;16.940;2022-12-10T04:10:08;33.97;;;14.03;;
21890;SDS011;11110;52.386;16.940;2022-12-10T04:12:36;35.37;;;13.40;;
21890;SDS011;11110;52.386;16.940;2022-12-10T04:15:06;35.13;;;14.17;;
21890;SDS011;11110;52.386;16.940;2022-12-10T04:17:54;37.43;;;14.57;;
21890;SDS011;11110;52.386;16.940;2022-12-10T04:20:22;37.57;;;14.67;;
21890;SDS011;11110;52.386;16.940;2022-12-10T04:23:08;40.87;;;14.83;;
21890;SDS011;11110;52.386;16.940;2022-12-10T04:25:54;36.23;;;13.30;;
21890;SDS011;11110;52.386;16.940;2022-12-10T04:28:39;33.03;;;14.63;;
21890;SDS011;11110;52.386;16.940;2022-12-10T04:31:08;37.50;;;14.23;;
21890;SDS011;11110;52.386;16.940;2022-12-10T04:33:38;33.10;;;13.53;;
21890;SDS011;11110;52.386;16.940;2022-12-10T04:36:07;34.77;;;13.30;;
21890;SDS011;11110;52.386;16.940;2022-12-10T04:38:35;35.73;;;13.60;;
21890;SDS011;11110;52.386;16.940;2022-12-10T04:41:04;37.43;;;13.70;;
21890;SDS011;11110;52.386;16.940;2022-12-10T04:43:42;38.97;;;13.57;;
21890;SDS011;11110;52.386;16.940;2022-12-10T04:46:11;34.70;;;13.00;;
21890;SDS011;11110;52.386;16.940;2022-12-10T04:48:41;34.73;;;12.90;;
21890;SDS011;11110;52.386;16.940;2022-12-10T04:51:10;36.63;;;13.37;;
21890;SDS011;11110;52.386;16.940;2022-12-10T04:53:38;36.20;;;14.57;;
21890;SDS011;11110;52.386;16.940;2022-12-10T04:56:07;31.77;;;13.57;;
21890;SDS011;11110;52.386;16.940;2022-12-10T04:58:35;38.87;;;13.77;;
21890;SDS011;11110;52.386;16.940;2022-12-10T05:01:04;37.67;;;13.63;;
21890;SDS011;11110;52.386;16.940;2022-12-10T05:03:34;34.90;;;14.70;;
21890;SDS011;11110;52.386;16.940;2022-12-10T05:06:06;34.60;;;14.40;;
21890;SDS011;11110;52.386;16.940;2022-12-10T05:08:36;34.40;;;13.87;;
21890;SDS011;11110;52.386;16.940;2022-12-10T05:11:06;33.77;;;13.93;;
21890;SDS011;11110;52.386;16.940;2022-12-10T05:13:37;40.00;;;15.97;;
21890;SDS011;11110;52.386;16.940;2022-12-10T05:16:07;39.80;;;15.97;;
21890;SDS011;11110;52.386;16.940;2022-12-10T05:18:38;41.43;;;16.57;;
21890;SDS011;11110;52.386;16.940;2022-12-10T05:21:10;40.47;;;16.37;;
21890;SDS011;11110;52.386;16.940;2022-12-10T05:23:41;42.67;;;15.83;;
21890;SDS011;11110;52.386;16.940;2022-12-10T05:26:12;42.37;;;16.50;;
21890;SDS011;11110;52.386;16.940;2022-12-10T05:28:42;42.33;;;15.93;;
21890;SDS011;11110;52.386;16.940;2022-12-10T05:31:12;42.00;;;16.43;;
21890;SDS011;11110;52.386;16.940;2022-12-10T05:33:42;43.60;;;16.60;;
21890;SDS011;11110;52.386;16.940;2022-12-10T05:36:13;38.43;;;15.47;;
21890;SDS011;11110;52.386;16.940;2022-12-10T05:38:43;43.13;;;16.87;;
21890;SDS011;11110;52.386;16.940;2022-12-10T05:41:13;48.63;;;17.40;;
21890;SDS011;11110;52.386;16.940;2022-12-10T05:43:44;40.30;;;16.83;;
21890;SDS011;11110;52.386;16.940;2022-12-10T05:46:14;48.23;;;17.33;;
21890;SDS011;11110;52.386;16.940;2022-12-10T05:48:44;48.30;;;17.33;;
21890;SDS011;11110;52.386;16.940;2022-12-10T05:51:15;41.27;;;16.60;;
21890;SDS011;11110;52.386;16.940;2022-12-10T05:53:45;48.83;;;18.30;;
21890;SDS011;11110;52.386;16.940;2022-12-10T05:56:14;50.77;;;18.30;;
21890;SDS011;11110;52.386;16.940;2022-12-10T05:58:45;41.77;;;16.77;;
21890;SDS011;11110;52.386;16.940;2022-12-10T06:01:15;42.67;;;16.47;;
21890;SDS011;11110;52.386;16.940;2022-12-10T06:03:45;44.80;;;18.50;;
21890;SDS011;11110;52.386;16.940;2022-12-10T06:06:16;42.50;;;17.47;;
21890;SDS011;11110;52.386;16.940;2022-12-10T06:08:48;45.83;;;18.20;;
21890;SDS011;11110;52.386;16.940;2022-12-10T06:11:17;44.87;;;17.10;;
21890;SDS011;11110;52.386;16.940;2022-12-10T06:13:46;47.00;;;16.97;;
21890;SDS011;11110;52.386;16.940;2022-12-10T06:16:22;48.37;;;17.77;;
21890;SDS011;11110;52.386;16.940;2022-12-10T06:18:52;47.27;;;19.10;;
21890;SDS011;11110;52.386;16.940;2022-12-10T06:21:22;44.70;;;18.53;;
21890;SDS011;11110;52.386;16.940;2022-12-10T06:23:51;46.50;;;17.77;;
21890;SDS011;11110;52.386;16.940;2022-12-10T06:26:21;43.47;;;17.83;;
21890;SDS011;11110;52.386;16.940;2022-12-10T06:28:51;47.60;;;19.20;;
21890;SDS011;11110;52.386;16.940;2022-12-10T06:31:21;52.70;;;19.70;;
21890;SDS011;11110;52.386;16.940;2022-12-10T06:33:50;45.87;;;18.30;;
21890;SDS011;11110;52.386;16.940;2022-12-10T06:36:19;46.97;;;17.57;;
21890;SDS011;11110;52.386;16.940;2022-12-10T06:38:49;49.63;;;19.80;;
21890;SDS011;11110;52.386;16.940;2022-12-10T06:41:18;48.47;;;19.47;;
21890;SDS011;11110;52.386;16.940;2022-12-10T06:43:47;43.57;;;16.73;;
21890;SDS011;11110;52.386;16.940;2022-12-10T06:46:17;52.40;;;19.10;;
21890;SDS011;11110;52.386;16.940;2022-12-10T06:48:47;48.27;;;20.23;;
21890;SDS011;11110;52.386;16.940;2022-12-10T06:51:17;49.67;;;19.90;;
21890;SDS011;11110;52.386;16.940;2022-12-10T06:53:45;48.57;;;18.87;;
21890;SDS011;11110;52.386;16.940;2022-12-10T06:56:17;45.17;;;17.83;;
21890;SDS011;11110;52.386;16.940;2022-12-10T06:58:46;44.17;;;18.33;;
21890;SDS011;11110;52.386;16.940;2022-12-10T07:01:17;49.80;;;17.97;;
21890;SDS011;11110;52.386;16.940;2022-12-10T07:03:47;50.73;;;19.80;;
21890;SDS011;11110;52.386;16.940;2022-12-10T07:06:17;50.50;;;19.60;;
21890;SDS011;11110;52.386;16.940;2022-12-10T07:08:47;47.43;;;18.23;;
21890;SDS011;11110;52.386;16.940;2022-12-10T07:11:18;33.43;;;14.77;;
21890;SDS011;11110;52.386;16.940;2022-12-10T07:13:49;46.03;;;17.67;;
21890;SDS011;11110;52.386;16.940;2022-12-10T07:16:19;46.83;;;17.23;;
21890;SDS011;11110;52.386;16.940;2022-12-10T07:18:49;49.13;;;19.30;;
21890;SDS011;11110;52.386;16.940;2022-12-10T07:21:19;49.23;;;19.53;;
21890;SDS011;11110;52.386;16.940;2022-12-10T07:23:49;42.47;;;17.27;;
21890;SDS011;11110;52.386;16.940;2022-12-10T07:26:21;46.13;;;18.23;;
21890;SDS011;11110;52.386;16.940;2022-12-10T07:28:50;49.83;;;18.67;;
21890;SDS011;11110;52.386;16.940;2022-12-10T07:31:20;48.47;;;18.70;;
21890;SDS011;11110;52.386;16.940;2022-12-10T07:33:50;41.67;;;17.30;;
21890;SDS011;11110;52.386;16.940;2022-12-10T07:36:20;48.13;;;18.40;;
21890;SDS011;11110;52.386;16.940;2022-12-10T07:38:49;49.13;;;18.47;;
21890;SDS011;11110;52.386;16.940;2022-12-10T07:41:18;46.57;;;17.80;;
21890;SDS011;11110;52.386;16.940;2022-12-10T07:43:49;44.77;;;17.13;;
21890;SDS011;11110;52.386;16.940;2022-12-10T07:46:19;52.67;;;19.53;;
21890;SDS011;11110;52.386;16.940;2022-12-10T07:48:49;51.23;;;18.57;;
21890;SDS011;11110;52.386;16.940;2022-12-10T07:51:18;50.67;;;19.03;;
21890;SDS011;11110;52.386;16.940;2022-12-10T07:53:50;47.53;;;18.53;;
21890;SDS011;11110;52.386;16.940;2022-12-10T07:56:20;48.47;;;19.03;;
21890;SDS011;11110;52.386;16.940;2022-12-10T07:58:51;56.03;;;20.30;;
21890;SDS011;11110;52.386;16.940;2022-12-10T08:01:20;58.43;;;20.40;;
21890;SDS011;11110;52.386;16.940;2022-12-10T08:03:50;48.67;;;19.60;;
21890;SDS011;11110;52.386;16.940;2022-12-10T08:06:20;56.80;;;20.87;;
21890;SDS011;11110;52.386;16.940;2022-12-10T08:08:49;50.83;;;19.80;;
21890;SDS011;11110;52.386;16.940;2022-12-10T08:11:19;52.77;;;19.03;;
21890;SDS011;11110;52.386;16.940;2022-12-10T08:13:48;52.40;;;21.03;;
21890;SDS011;11110;52.386;16.940;2022-12-10T08:16:24;51.90;;;19.33;;
21890;SDS011;11110;52.386;16.940;2022-12-10T08:18:54;49.97;;;19.30;;
21890;SDS011;11110;52.386;16.940;2022-12-10T08:21:25;48.77;;;19.37;;
21890;SDS011;11110;52.386;16.940;2022-12-10T08:23:55;51.90;;;18.40;;
21890;SDS011;11110;52.386;16.940;2022-12-10T08:26:25;48.77;;;18.50;;
21890;SDS011;11110;52.386;16.940;2022-12-10T08:28:56;53.50;;;19.23;;
21890;SDS011;11110;52.386;16.940;2022-12-10T08:31:25;56.23;;;20.57;;
21890;SDS011;11110;52.386;16.940;2022-12-10T08:34:02;69.53;;;23.10;;
21890;SDS011;11110;52.386;16.940;2022-12-10T08:36:31;61.33;;;21.70;;
21890;SDS011;11110;52.386;16.940;2022-12-10T08:38:59;57.43;;;19.80;;
21890;SDS011;11110;52.386;16.940;2022-12-10T08:41:28;65.43;;;23.10;;
21890;SDS011;11110;52.386;16.940;2022-12-10T08:43:58;56.00;;;20.83;;
21890;SDS011;11110;52.386;16.940;2022-12-10T08:46:26;60.67;;;19.87;;
21890;SDS011;11110;52.386;16.940;2022-12-10T08:48:56;61.87;;;21.13;;
21890;SDS011;11110;52.386;16.940;2022-12-10T08:51:25;66.23;;;21.73;;
21890;SDS011;11110;52.386;16.940;2022-12-10T08:53:54;56.90;;;19.10;;
21890;SDS011;11110;52.386;16.940;2022-12-10T08:56:23;54.57;;;19.67;;
21890;SDS011;11110;52.386;16.940;2022-12-10T08:58:52;57.93;;;21.43;;
21890;SDS011;11110;52.386;16.940;2022-12-10T09:01:22;55.93;;;19.93;;
21890;SDS011;11110;52.386;16.940;2022-12-10T09:03:50;52.90;;;21.27;;
21890;SDS011;11110;52.386;16.940;2022-12-10T09:06:21;55.17;;;20.23;;
21890;SDS011;11110;52.386;16.940;2022-12-10T09:08:51;58.07;;;20.67;;
21890;SDS011;11110;52.386;16.940;2022-12-10T09:11:21;53.20;;;19.20;;
21890;SDS011;11110;52.386;16.940;2022-12-10T09:13:52;52.83;;;19.90;;
21890;SDS011;11110;52.386;16.940;2022-12-10T09:16:24;52.47;;;19.40;;
21890;SDS011;11110;52.386;16.940;2022-12-10T09:18:56;59.23;;;19.10;;
21890;SDS011;11110;52.386;16.940;2022-12-10T09:21:25;45.10;;;18.43;;
21890;SDS011;11110;52.386;16.940;2022-12-10T09:23:54;42.13;;;17.20;;
21890;SDS011;11110;52.386;16.940;2022-12-10T09:26:22;53.93;;;19.03;;
21890;SDS011;11110;52.386;16.940;2022-12-10T09:28:51;47.30;;;18.73;;
21890;SDS011;11110;52.386;16.940;2022-12-10T09:31:22;44.47;;;17.83;;
21890;SDS011;11110;52.386;16.940;2022-12-10T09:33:51;44.10;;;17.67;;
21890;SDS011;11110;52.386;16.940;2022-12-10T09:36:21;40.80;;;18.37;;
21890;SDS011;11110;52.386;16.940;2022-12-10T09:38:57;42.27;;;17.77;;
21890;SDS011;11110;52.386;16.940;2022-12-10T09:41:33;37.60;;;17.33;;
21890;SDS011;11110;52.386;16.940;2022-12-10T09:44:18;38.23;;;15.73;;
21890;SDS011;11110;52.386;16.940;2022-12-10T09:46:55;39.80;;;16.33;;
21890;SDS011;11110;52.386;16.940;2022-12-10T09:49:27;35.83;;;15.53;;
21890;SDS011;11110;52.386;16.940;2022-12-10T09:52:06;52.23;;;17.43;;
21890;SDS011;11110;52.386;16.940;2022-12-10T09:54:41;34.40;;;14.53;;
21890;SDS011;11110;52.386;16.940;2022-12-10T09:57:15;33.30;;;13.20;;
21890;SDS011;11110;52.386;16.940;2022-12-10T09:59:48;33.37;;;14.17;;
21890;SDS011;11110;52.386;16.940;2022-12-10T10:02:21;40.53;;;15.00;;
21890;SDS011;11110;52.386;16.940;2022-12-10T10:04:53;40.20;;;14.90;;
21890;SDS011;11110;52.386;16.940;2022-12-10T10:07:39;35.50;;;13.20;;
21890;SDS011;11110;52.386;16.940;2022-12-10T10:10:16;38.40;;;14.77;;
21890;SDS011;11110;52.386;16.940;2022-12-10T10:12:51;37.03;;;14.07;;
21890;SDS011;11110;52.386;16.940;2022-12-10T10:15:23;34.37;;;13.07;;
21890;SDS011;11110;52.386;16.940;2022-12-10T10:17:57;33.20;;;13.73;;
21890;SDS011;11110;52.386;16.940;2022-12-10T10:20:30;36.20;;;13.23;;
21890;SDS011;11110;52.386;16.940;2022-12-10T10:22:58;38.77;;;14.30;;
21890;SDS011;11110;52.386;16.940;2022-12-10T10:25:27;36.53;;;13.00;;
21890;SDS011;11110;52.386;16.940;2022-12-10T10:27:56;35.07;;;13.73;;
21890;SDS011;11110;52.386;16.940;2022-12-10T10:30:25;38.33;;;13.73;;
21890;SDS011;11110;52.386;16.940;2022-12-10T10:32:55;35.53;;;12.43;;
21890;SDS011;11110;52.386;16.940;2022-12-10T10:35:30;38.33;;;14.00;;
21890;SDS011;11110;52.386;16.940;2022-12-10T10:38:01;39.83;;;13.23;;
21890;SDS011;11110;52.386;16.940;2022-12-10T10:40:38;30.40;;;12.03;;
21890;SDS011;11110;52.386;16.940;2022-12-10T10:43:12;35.00;;;12.23;;
21890;SDS011;11110;52.386;16.940;2022-12-10T10:45:47;32.67;;;13.30;;
21890;SDS011;11110;52.386;16.940;2022-12-10T10:48:19;33.47;;;13.63;;
21890;SDS011;11110;52.386;16.940;2022-12-10T10:50:50;34.93;;;13.20;;
21890;SDS011;11110;52.386;16.940;2022-12-10T10:53:21;35.60;;;13.93;;
21890;SDS011;11110;52.386;16.940;2022-12-10T10:55:55;38.40;;;13.77;;
21890;SDS011;11110;52.386;16.940;2022-12-10T10:58:26;35.53;;;12.50;;
21890;SDS011;11110;52.386;16.940;2022-12-10T11:00:56;36.90;;;11.80;;
21890;SDS011;11110;52.386;16.940;2022-12-10T11:03:29;37.10;;;13.47;;
21890;SDS011;11110;52.386;16.940;2022-12-10T11:06:00;35.20;;;13.07;;
21890;SDS011;11110;52.386;16.940;2022-12-10T11:08:33;32.73;;;12.93;;
21890;SDS011;11110;52.386;16.940;2022-12-10T11:11:06;40.30;;;13.83;;
21890;SDS011;11110;52.386;16.940;2022-12-10T11:13:40;35.90;;;12.90;;
21890;SDS011;11110;52.386;16.940;2022-12-10T11:16:12;32.67;;;12.30;;
21890;SDS011;11110;52.386;16.940;2022-12-10T11:18:54;33.87;;;13.93;;
21890;SDS011;11110;52.386;16.940;2022-12-10T11:21:28;37.40;;;13.93;;
21890;SDS011;11110;52.386;16.940;2022-12-10T11:23:59;37.67;;;13.43;;
21890;SDS011;11110;52.386;16.940;2022-12-10T11:26:35;38.37;;;13.60;;
21890;SDS011;11110;52.386;16.940;2022-12-10T11:29:21;36.23;;;13.37;;
21890;SDS011;11110;52.386;16.940;2022-12-10T11:32:04;33.70;;;13.10;;
21890;SDS011;11110;52.386;16.940;2022-12-10T11:34:44;38.10;;;13.63;;
21890;SDS011;11110;52.386;16.940;2022-12-10T11:37:21;34.77;;;12.83;;
21890;SDS011;11110;52.386;16.940;2022-12-10T11:40:05;36.50;;;13.37;;
21890;SDS011;11110;52.386;16.940;2022-12-10T11:42:43;39.00;;;13.50;;
21890;SDS011;11110;52.386;16.940;2022-12-10T11:45:22;33.50;;;12.90;;
21890;SDS011;11110;52.386;16.940;2022-12-10T11:47:57;39.97;;;13.63;;
21890;SDS011;11110;52.386;16.940;2022-12-10T11:50:40;36.97;;;14.20;;
21890;SDS011;11110;52.386;16.940;2022-12-10T11:53:15;38.93;;;14.33;;
21890;SDS011;11110;52.386;16.940;2022-12-10T11:55:57;33.10;;;11.60;;
21890;SDS011;11110;52.386;16.940;2022-12-10T11:58:42;37.60;;;13.30;;
21890;SDS011;11110;52.386;16.940;2022-12-10T12:01:25;39.10;;;13.07;;
21890;SDS011;11110;52.386;16.940;2022-12-10T12:04:06;46.23;;;15.80;;
21890;SDS011;11110;52.386;16.940;2022-12-10T12:06:55;33.57;;;13.00;;
21890;SDS011;11110;52.386;16.940;2022-12-10T12:09:37;38.93;;;15.07;;
21890;SDS011;11110;52.386;16.940;2022-12-10T12:12:17;37.83;;;13.50;;
21890;SDS011;11110;52.386;16.940;2022-12-10T12:14:52;32.90;;;12.60;;
21890;SDS011;11110;52.386;16.940;2022-12-10T12:17:26;33.93;;;13.43;;
21890;SDS011;11110;52.386;16.940;2022-12-10T12:19:58;32.60;;;12.23;;
21890;SDS011;11110;52.386;16.940;2022-12-10T12:22:33;34.30;;;13.13;;
21890;SDS011;11110;52.386;16.940;2022-12-10T12:25:09;32.53;;;13.63;;
21890;SDS011;11110;52.386;16.940;2022-12-10T12:27:46;31.63;;;13.23;;
21890;SDS011;11110;52.386;16.940;2022-12-10T12:30:21;35.60;;;13.90;;
21890;SDS011;11110;52.386;16.940;2022-12-10T12:32:52;37.23;;;13.63;;
21890;SDS011;11110;52.386;16.940;2022-12-10T12:35:28;41.03;;;13.53;;
21890;SDS011;11110;52.386;16.940;2022-12-10T12:38:14;34.23;;;12.63;;
21890;SDS011;11110;52.386;16.940;2022-12-10T12:40:52;28.97;;;12.17;;
21890;SDS011;11110;52.386;16.940;2022-12-10T12:43:25;29.50;;;13.30;;
21890;SDS011;11110;52.386;16.940;2022-12-10T12:46:05;31.20;;;12.47;;
21890;SDS011;11110;52.386;16.940;2022-12-10T12:48:42;29.30;;;12.33;;
21890;SDS011;11110;52.386;16.940;2022-12-10T12:51:17;33.53;;;13.50;;
21890;SDS011;11110;52.386;16.940;2022-12-10T12:53:52;28.23;;;11.97;;
21890;SDS011;11110;52.386;16.940;2022-12-10T12:56:23;25.43;;;12.07;;
21890;SDS011;11110;52.386;16.940;2022-12-10T12:59:03;38.53;;;12.33;;
21890;SDS011;11110;52.386;16.940;2022-12-10T13:01:40;32.37;;;11.93;;
21890;SDS011;11110;52.386;16.940;2022-12-10T13:04:15;33.63;;;12.80;;
21890;SDS011;11110;52.386;16.940;2022-12-10T13:10:07;28.40;;;11.70;;
21890;SDS011;11110;52.386;16.940;2022-12-10T13:13:16;31.47;;;12.77;;
21890;SDS011;11110;52.386;16.940;2022-12-10T13:15:54;32.00;;;12.50;;
21890;SDS011;11110;52.386;16.940;2022-12-10T13:18:33;32.77;;;12.73;;
21890;SDS011;11110;52.386;16.940;2022-12-10T13:24:08;28.57;;;12.00;;
21890;SDS011;11110;52.386;16.940;2022-12-10T13:27:00;34.77;;;13.20;;
21890;SDS011;11110;52.386;16.940;2022-12-10T13:29:43;27.90;;;11.40;;
21890;SDS011;11110;52.386;16.940;2022-12-10T13:32:15;32.43;;;11.93;;
21890;SDS011;11110;52.386;16.940;2022-12-10T13:34:45;28.80;;;12.57;;
21890;SDS011;11110;52.386;16.940;2022-12-10T13:40:14;27.40;;;11.03;;
21890;SDS011;11110;52.386;16.940;2022-12-10T13:42:57;28.93;;;11.90;;
21890;SDS011;11110;52.386;16.940;2022-12-10T13:48:56;27.90;;;11.50;;
21890;SDS011;11110;52.386;16.940;2022-12-10T13:57:38;27.80;;;13.10;;
21890;SDS011;11110;52.386;16.940;2022-12-10T14:00:23;32.53;;;13.70;;
21890;SDS011;11110;52.386;16.940;2022-12-10T14:06:19;32.50;;;13.13;;
21890;SDS011;11110;52.386;16.940;2022-12-10T14:08:56;27.47;;;11.43;;
21890;SDS011;11110;52.386;16.940;2022-12-10T14:11:29;31.30;;;12.13;;
21890;SDS011;11110;52.386;16.940;2022-12-10T14:14:04;38.57;;;14.23;;
21890;SDS011;11110;52.386;16.940;2022-12-10T14:16:36;32.33;;;12.80;;
21890;SDS011;11110;52.386;16.940;2022-12-10T14:19:08;41.47;;;12.93;;
21890;SDS011;11110;52.386;16.940;2022-12-10T14:21:43;34.87;;;12.97;;
21890;SDS011;11110;52.386;16.940;2022-12-10T14:24:30;32.77;;;13.07;;
21890;SDS011;11110;52.386;16.940;2022-12-10T14:27:03;29.13;;;12.10;;
21890;SDS011;11110;52.386;16.940;2022-12-10T14:29:42;32.60;;;12.73;;
21890;SDS011;11110;52.386;16.940;2022-12-10T14:32:14;36.47;;;13.43;;
21890;SDS011;11110;52.386;16.940;2022-12-10T14:34:46;26.27;;;10.87;;
21890;SDS011;11110;52.386;16.940;2022-12-10T14:37:18;44.10;;;13.50;;
21890;SDS011;11110;52.386;16.940;2022-12-10T14:39:50;32.80;;;12.37;;
21890;SDS011;11110;52.386;16.940;2022-12-10T14:42:19;32.10;;;11.93;;
21890;SDS011;11110;52.386;16.940;2022-12-10T14:44:49;37.50;;;13.20;;
21890;SDS011;11110;52.386;16.940;2022-12-10T14:47:24;29.27;;;12.33;;
21890;SDS011;11110;52.386;16.940;2022-12-10T14:49:53;33.10;;;12.33;;
21890;SDS011;11110;52.386;16.940;2022-12-10T14:52:23;41.20;;;13.17;;
21890;SDS011;11110;52.386;16.940;2022-12-10T14:54:59;31.13;;;11.80;;
21890;SDS011;11110;52.386;16.940;2022-12-10T14:57:28;28.77;;;10.03;;
21890;SDS011;11110;52.386;16.940;2022-12-10T15:00:03;34.10;;;12.50;;
21890;SDS011;11110;52.386;16.940;2022-12-10T15:02:36;28.87;;;11.00;;
21890;SDS011;11110;52.386;16.940;2022-12-10T15:05:09;32.37;;;10.57;;